createdAt,value
2022-10-01T00:01:01.320Z,75888.88
2022-10-01T00:03:29.338Z,75892.75
2022-10-01T00:06:13.058Z,75885.03
2022-10-01T00:08:41.342Z,75881.19
2022-10-01T00:11:10.115Z,75869.63
2022-10-01T00:13:37.007Z,75881.19
2022-10-01T00:16:11.915Z,75881.19
2022-10-01T00:18:40.120Z,75883.09
2022-10-01T00:21:09.309Z,75877.31
2022-10-01T00:23:36.492Z,75877.31
2022-10-01T00:26:16.938Z,75869.63
2022-10-01T00:28:46.103Z,75869.63
2022-10-01T00:31:15.048Z,75873.47
2022-10-01T00:33:42.616Z,75873.47
2022-10-01T00:36:10.620Z,75871.53
2022-10-01T00:38:38.305Z,75861.91
2022-10-01T00:41:06.194Z,75865.75
2022-10-01T00:43:37.628Z,75869.63
2022-10-01T00:46:18.466Z,75865.75
2022-10-01T00:48:59.916Z,75865.75
2022-10-01T00:51:30.788Z,75858.06
2022-10-01T00:54:05.731Z,75861.91
2022-10-01T00:56:32.913Z,75842.66
2022-10-01T00:59:00.235Z,75858.06
2022-10-01T01:01:27.341Z,75858.06
2022-10-01T01:03:55.145Z,75850.34
2022-10-01T01:06:21.833Z,75848.44
2022-10-01T01:08:58.077Z,75850.34
2022-10-01T01:11:34.430Z,75846.50
2022-10-01T01:14:10.059Z,75852.28
2022-10-01T01:16:46.968Z,75854.22
2022-10-01T01:19:20.745Z,75858.06
2022-10-01T01:21:53.508Z,75861.91
2022-10-01T01:24:38.636Z,75865.75
2022-10-01T01:27:23.284Z,75861.91
2022-10-01T01:30:10.332Z,75856.13
2022-10-01T01:32:46.666Z,75856.13
2022-10-01T01:35:24.244Z,75854.22
2022-10-01T01:37:57.314Z,75852.28
2022-10-01T01:40:25.538Z,75846.50
2022-10-01T01:42:54.703Z,75852.28
2022-10-01T01:45:25.617Z,75858.06
2022-10-01T01:47:56.111Z,75858.06
2022-10-01T01:50:28.548Z,75858.06
2022-10-01T01:52:55.605Z,75852.28
2022-10-01T01:55:25.024Z,75856.13
2022-10-01T01:57:53.171Z,75854.22
2022-10-01T02:00:20.673Z,75856.13
2022-10-01T02:02:51.771Z,75854.22
2022-10-01T02:05:23.844Z,75854.22
2022-10-01T02:08:12.789Z,75859.97
2022-10-01T02:11:03.118Z,75850.34
2022-10-01T02:13:55.549Z,75852.28
2022-10-01T02:16:57.922Z,75854.22
2022-10-01T02:19:33.707Z,75846.50
2022-10-01T02:22:01.209Z,75842.66
2022-10-01T02:24:33.294Z,75850.34
2022-10-01T02:27:03.572Z,75850.34
2022-10-01T02:29:31.006Z,75854.22
2022-10-01T02:31:57.722Z,75854.22
2022-10-01T02:34:28.997Z,75854.22
2022-10-01T02:36:59.392Z,75863.84
2022-10-01T02:39:29.779Z,75861.91
2022-10-01T02:41:59.003Z,75867.69
2022-10-01T02:44:38.580Z,75865.75
2022-10-01T02:47:18.601Z,75865.75
2022-10-01T02:49:45.349Z,75873.47
2022-10-01T02:52:12.006Z,75871.53
2022-10-01T02:54:44.636Z,75865.75
2022-10-01T02:57:24.489Z,75869.63
2022-10-01T02:59:52.467Z,75867.69
2022-10-01T03:02:20.115Z,75863.84
2022-10-01T03:04:49.717Z,75856.13
2022-10-01T03:07:16.825Z,75854.22
2022-10-01T03:09:43.580Z,75844.56
2022-10-01T03:12:11.243Z,75838.78
2022-10-01T03:14:39.380Z,75838.78
2022-10-01T03:17:07.242Z,75827.22
2022-10-01T03:19:34.183Z,75836.88
2022-10-01T03:22:01.070Z,75834.94
2022-10-01T03:24:27.997Z,75831.09
2022-10-01T03:26:57.904Z,75827.22
2022-10-01T03:29:25.419Z,75831.09
2022-10-01T03:31:53.164Z,75838.78
2022-10-01T03:34:20.126Z,75846.50
2022-10-01T03:36:47.099Z,75846.50
2022-10-01T03:39:14.374Z,75840.72
2022-10-01T03:41:41.358Z,75836.88
2022-10-01T03:44:08.074Z,75838.78
2022-10-01T03:46:34.786Z,75842.66
2022-10-01T03:49:01.524Z,75838.78
2022-10-01T03:51:29.681Z,75838.78
2022-10-01T03:53:57.953Z,75836.88
2022-10-01T03:56:25.220Z,75834.94
2022-10-01T03:58:52.078Z,75831.09
2022-10-01T04:01:18.827Z,75831.09
2022-10-01T04:03:45.691Z,75838.78
2022-10-01T04:06:12.537Z,75834.94
2022-10-01T04:08:39.625Z,75838.78
2022-10-01T04:11:07.406Z,75846.50
2022-10-01T04:13:35.407Z,75842.66
2022-10-01T04:16:05.837Z,75844.56
2022-10-01T04:18:33.233Z,75842.66
2022-10-01T04:21:00.223Z,75846.50
2022-10-01T04:23:27.250Z,75846.50
2022-10-01T04:25:53.931Z,75858.06
2022-10-01T04:28:20.661Z,75858.06
2022-10-01T04:30:47.402Z,75865.75
2022-10-01T04:33:16.438Z,75863.84
2022-10-01T04:35:44.320Z,75863.84
2022-10-01T04:38:16.969Z,75858.06
2022-10-01T04:40:43.807Z,75858.06
2022-10-01T04:43:12.536Z,75856.13
2022-10-01T04:45:39.550Z,75861.91
2022-10-01T04:48:06.281Z,75858.06
2022-10-01T04:50:33.048Z,75850.34
2022-10-01T04:52:59.751Z,75854.22
2022-10-01T04:55:26.492Z,75858.06
2022-10-01T04:57:53.246Z,75858.06
2022-10-01T05:00:24.404Z,75854.22
2022-10-01T05:02:51.524Z,75861.91
2022-10-01T05:05:20.899Z,75861.91
2022-10-01T05:07:48.748Z,75859.97
2022-10-01T05:10:19.221Z,75861.91
2022-10-01T05:12:47.074Z,75858.06
2022-10-01T05:15:15.517Z,75854.22
2022-10-01T05:17:43.128Z,75854.22
2022-10-01T05:20:16.849Z,75854.22
2022-10-01T05:22:45.222Z,75850.34
2022-10-01T05:25:12.331Z,75854.22
2022-10-01T05:27:40.495Z,75854.22
2022-10-01T05:30:09.530Z,75854.22
2022-10-01T05:32:37.079Z,75850.34
2022-10-01T05:35:08.370Z,75854.22
2022-10-01T05:37:36.011Z,75858.06
2022-10-01T05:40:03.754Z,75859.97
2022-10-01T05:42:30.513Z,75861.91
2022-10-01T05:44:57.232Z,75854.22
2022-10-01T05:47:23.888Z,75856.13
2022-10-01T05:49:50.644Z,75858.06
2022-10-01T05:52:17.345Z,75854.22
2022-10-01T05:54:44.094Z,75850.34
2022-10-01T05:57:10.953Z,75846.50
2022-10-01T05:59:37.680Z,75848.44
2022-10-01T06:02:04.589Z,75850.34
2022-10-01T06:04:31.468Z,75850.34
2022-10-01T06:06:58.177Z,75848.44
2022-10-01T06:09:29.837Z,75846.50
2022-10-01T06:11:56.581Z,75840.72
2022-10-01T06:14:23.368Z,75842.66
2022-10-01T06:16:54.462Z,75838.78
2022-10-01T06:19:21.251Z,75834.94
2022-10-01T06:21:47.931Z,75829.16
2022-10-01T06:24:14.555Z,75823.38
2022-10-01T06:26:41.516Z,75807.97
2022-10-01T06:29:08.203Z,75807.97
2022-10-01T06:31:35.062Z,75804.13
2022-10-01T06:34:02.026Z,75798.34
2022-10-01T06:36:28.674Z,75790.63
2022-10-01T06:38:55.338Z,75771.38
2022-10-01T06:41:21.993Z,75744.38
2022-10-01T06:43:48.996Z,75719.34
2022-10-01T06:46:15.710Z,75692.38
2022-10-01T06:48:43.015Z,75676.97
2022-10-01T06:51:09.806Z,75659.63
2022-10-01T06:53:36.521Z,75661.56
2022-10-01T06:56:07.772Z,75680.81
2022-10-01T06:58:34.715Z,75702.00
2022-10-01T07:01:03.190Z,75707.78
2022-10-01T07:03:31.219Z,75723.19
2022-10-01T07:06:05.642Z,75721.28
2022-10-01T07:08:33.357Z,75711.63
2022-10-01T07:11:02.746Z,75694.31
2022-10-01T07:13:29.670Z,75680.81
2022-10-01T07:15:56.545Z,75671.19
2022-10-01T07:18:23.730Z,75650.00
2022-10-01T07:20:50.496Z,75634.56
2022-10-01T07:23:17.952Z,75628.78
2022-10-01T07:25:44.634Z,75619.16
2022-10-01T07:28:18.927Z,75644.22
2022-10-01T07:30:59.448Z,75638.44
2022-10-01T07:33:26.387Z,75626.88
2022-10-01T07:35:53.065Z,75597.97
2022-10-01T07:38:19.904Z,75517.06
2022-10-01T07:40:55.313Z,75466.97
2022-10-01T07:43:22.672Z,75420.75
2022-10-01T07:45:58.363Z,75391.84
2022-10-01T07:48:26.095Z,75395.69
2022-10-01T07:50:52.950Z,75391.84
2022-10-01T07:53:20.168Z,75409.19
2022-10-01T07:55:46.756Z,75472.75
2022-10-01T07:58:13.483Z,75461.19
2022-10-01T08:00:40.189Z,75455.41
2022-10-01T08:03:07.047Z,75472.75
2022-10-01T08:05:35.928Z,75486.25
2022-10-01T08:08:05.668Z,75507.44
2022-10-01T08:10:36.843Z,75549.81
2022-10-01T08:13:15.076Z,75553.66
2022-10-01T08:15:53.413Z,75542.09
2022-10-01T08:18:24.112Z,75534.41
2022-10-01T08:20:51.037Z,75534.41
2022-10-01T08:23:17.681Z,75536.31
2022-10-01T08:25:45.098Z,75499.72
2022-10-01T08:28:12.774Z,75472.75
2022-10-01T08:30:41.593Z,75468.91
2022-10-01T08:33:11.456Z,75418.81
2022-10-01T08:35:40.309Z,75374.50
2022-10-01T08:38:07.573Z,75380.28
2022-10-01T08:40:39.412Z,75372.59
2022-10-01T08:43:10.700Z,75378.38
2022-10-01T08:45:52.536Z,75393.78
2022-10-01T08:48:37.724Z,75389.91
2022-10-01T08:51:07.712Z,75386.06
2022-10-01T08:53:41.396Z,75424.59
2022-10-01T08:56:20.301Z,75414.97
2022-10-01T08:58:57.287Z,75428.44
2022-10-01T09:01:24.567Z,75457.34
2022-10-01T09:03:51.668Z,75457.34
2022-10-01T09:06:20.984Z,75422.66
2022-10-01T09:08:47.652Z,75399.56
2022-10-01T09:11:51.550Z,75418.81
2022-10-01T09:14:57.117Z,75384.13
2022-10-01T09:17:49.728Z,75362.94
2022-10-01T09:20:16.422Z,75393.78
2022-10-01T09:22:52.938Z,75376.44
2022-10-01T09:25:27.345Z,75372.59
2022-10-01T09:28:23.138Z,75403.41
2022-10-01T09:31:00.645Z,75416.91
2022-10-01T09:33:36.958Z,75407.25
2022-10-01T09:36:24.756Z,75416.91
2022-10-01T09:39:10.115Z,75414.97
2022-10-01T09:41:39.699Z,75432.31
2022-10-01T09:44:16.780Z,75430.38
2022-10-01T09:46:46.823Z,75418.81
2022-10-01T09:49:35.103Z,75422.66
2022-10-01T09:52:06.334Z,75422.66
2022-10-01T09:54:44.063Z,75420.75
2022-10-01T09:57:15.511Z,75414.97
2022-10-01T09:59:50.383Z,75403.41
2022-10-01T10:02:24.552Z,75399.56
2022-10-01T10:05:02.462Z,75384.13
2022-10-01T10:07:32.419Z,75376.44
2022-10-01T10:10:25.483Z,75395.69
2022-10-01T10:13:07.923Z,75395.69
2022-10-01T10:15:35.902Z,75395.69
2022-10-01T10:18:11.610Z,75380.28
2022-10-01T10:20:40.812Z,75401.47
2022-10-01T10:23:12.800Z,75405.34
2022-10-01T10:25:40.352Z,75399.56
2022-10-01T10:28:20.609Z,75376.44
2022-10-01T10:30:48.410Z,75349.47
2022-10-01T10:33:15.136Z,75326.34
2022-10-01T10:35:41.844Z,75305.16
2022-10-01T10:38:18.209Z,75283.97
2022-10-01T10:40:46.029Z,75255.09
2022-10-01T10:43:20.812Z,75233.88
2022-10-01T10:45:47.849Z,75216.56
2022-10-01T10:48:18.506Z,75179.94
2022-10-01T10:50:46.438Z,75156.84
2022-10-01T10:53:24.279Z,75141.44
2022-10-01T10:56:06.361Z,75141.44
2022-10-01T10:58:34.990Z,75143.34
2022-10-01T11:01:12.173Z,75137.56
2022-10-01T11:03:46.844Z,75135.66
2022-10-01T11:08:43.124Z,75129.88
2022-10-01T11:11:45.201Z,75129.88
2022-10-01T11:14:49.320Z,75102.91
2022-10-01T11:17:49.735Z,75106.75
2022-10-01T11:20:34.605Z,75104.84
2022-10-01T11:23:07.112Z,75095.19
2022-10-01T11:25:45.933Z,75087.50
2022-10-01T11:28:20.133Z,75064.38
2022-10-01T11:31:22.554Z,75056.69
2022-10-01T11:34:14.829Z,75056.69
2022-10-01T11:37:20.107Z,75047.03
2022-10-01T11:39:52.991Z,75006.59
2022-10-01T11:42:27.778Z,74983.47
2022-10-01T11:45:03.275Z,74985.41
2022-10-01T11:47:43.843Z,75018.16
2022-10-01T11:50:30.232Z,75006.59
2022-10-01T11:53:02.764Z,75041.28
2022-10-01T11:56:03.235Z,75020.09
2022-10-01T11:58:51.234Z,75022.00
2022-10-01T12:01:23.967Z,75006.59
2022-10-01T12:03:53.425Z,75002.75
2022-10-01T12:06:34.572Z,74985.41
2022-10-01T12:09:05.838Z,74996.97
2022-10-01T12:11:42.770Z,74979.63
2022-10-01T12:14:20.003Z,74975.78
2022-10-01T12:16:59.580Z,74975.78
2022-10-01T12:19:33.547Z,74983.47
2022-10-01T12:22:24.519Z,75006.59
2022-10-01T12:24:52.959Z,75025.84
2022-10-01T12:27:58.381Z,75031.63
2022-10-01T12:30:34.031Z,75025.84
2022-10-01T12:33:00.908Z,75045.13
2022-10-01T12:35:54.015Z,75027.78
2022-10-01T12:38:57.326Z,75010.44
2022-10-01T12:41:38.263Z,75022.00
2022-10-01T12:44:32.464Z,75025.84
2022-10-01T12:47:17.453Z,75047.03
2022-10-01T12:50:15.446Z,75018.16
2022-10-01T12:52:57.465Z,75010.44
2022-10-01T12:55:32.100Z,74995.03
2022-10-01T12:58:08.195Z,74993.13
2022-10-01T13:00:44.466Z,74998.91
2022-10-01T13:03:47.260Z,74975.78
2022-10-01T13:06:52.536Z,74971.94
2022-10-01T13:09:28.331Z,74971.94
2022-10-01T13:12:22.491Z,74971.94
2022-10-01T13:14:51.926Z,74964.22
2022-10-01T13:17:42.327Z,74993.13
2022-10-01T13:20:23.750Z,74987.34
2022-10-01T13:22:56.096Z,74991.19
2022-10-01T13:25:40.887Z,74981.56
2022-10-01T13:28:32.001Z,74991.19
2022-10-01T13:31:01.884Z,75002.75
2022-10-01T13:33:36.130Z,75004.66
2022-10-01T13:36:05.632Z,75010.44
2022-10-01T13:38:38.348Z,75008.53
2022-10-01T13:41:16.469Z,75014.31
2022-10-01T13:43:56.243Z,75023.94
2022-10-01T13:46:25.346Z,75043.19
2022-10-01T13:48:52.933Z,75041.28
2022-10-01T13:51:20.375Z,75039.34
2022-10-01T13:54:00.683Z,75037.41
2022-10-01T13:56:37.365Z,75033.56
2022-10-01T13:59:20.742Z,75045.13
2022-10-01T14:01:47.893Z,75048.97
2022-10-01T14:04:27.743Z,75054.75
2022-10-01T14:07:01.387Z,75058.59
2022-10-01T14:09:41.347Z,75058.59
2022-10-01T14:12:50.967Z,75070.16
2022-10-01T14:15:39.826Z,75068.25
2022-10-01T14:18:12.335Z,75068.25
2022-10-01T14:21:08.737Z,75066.31
2022-10-01T14:23:44.839Z,75066.31
2022-10-01T14:26:18.872Z,75060.53
2022-10-01T14:29:08.697Z,75054.75
2022-10-01T14:31:54.998Z,75052.81
2022-10-01T14:34:42.282Z,75056.69
2022-10-01T14:37:17.101Z,75074.00
2022-10-01T14:39:44.360Z,75102.91
2022-10-01T14:42:17.125Z,75122.16
2022-10-01T14:44:47.847Z,75118.31
2022-10-01T14:47:23.857Z,75127.94
2022-10-01T14:49:51.854Z,75139.50
2022-10-01T14:52:22.934Z,75153.00
2022-10-01T14:55:01.495Z,75168.41
2022-10-01T14:57:34.161Z,75168.41
2022-10-01T15:00:08.600Z,75176.09
2022-10-01T15:02:48.081Z,75191.50
2022-10-01T15:05:22.454Z,75203.06
2022-10-01T15:07:49.596Z,75228.13
2022-10-01T15:10:19.854Z,75228.13
2022-10-01T15:12:49.663Z,75230.03
2022-10-01T15:15:18.850Z,75253.16
2022-10-01T15:17:46.074Z,75251.22
2022-10-01T15:20:14.691Z,75253.16
2022-10-01T15:22:44.159Z,75249.31
2022-10-01T15:25:17.974Z,75249.31
2022-10-01T15:27:44.860Z,75264.72
2022-10-01T15:30:15.553Z,75283.97
2022-10-01T15:32:42.376Z,75280.13
2022-10-01T15:35:13.486Z,75299.38
2022-10-01T15:37:41.186Z,75295.53
2022-10-01T15:40:22.181Z,75295.53
2022-10-01T15:43:34.584Z,75295.53
2022-10-01T15:46:07.204Z,75314.78
2022-10-01T15:48:34.336Z,75314.78
2022-10-01T15:51:12.190Z,75322.50
2022-10-01T15:53:38.907Z,75337.91
2022-10-01T15:56:13.016Z,75341.75
2022-10-01T15:58:47.907Z,75353.31
2022-10-01T16:01:25.083Z,75361.03
2022-10-01T16:04:13.474Z,75364.88
2022-10-01T16:06:46.790Z,75384.13
2022-10-01T16:09:19.775Z,75388.00
2022-10-01T16:11:55.120Z,75393.78
2022-10-01T16:14:43.833Z,75391.84
2022-10-01T16:17:19.783Z,75395.69
2022-10-01T16:19:55.145Z,75397.63
2022-10-01T16:22:31.870Z,75407.25
2022-10-01T16:25:10.170Z,75418.81
2022-10-01T16:27:48.665Z,75430.38
2022-10-01T16:30:41.623Z,75441.94
2022-10-01T16:33:10.279Z,75441.94
2022-10-01T16:35:39.767Z,75451.56
2022-10-01T16:38:08.436Z,75459.28
2022-10-01T16:40:40.083Z,75470.81
2022-10-01T16:43:07.707Z,75480.47
2022-10-01T16:45:37.554Z,75480.47
2022-10-01T16:48:16.121Z,75484.31
2022-10-01T16:50:46.579Z,75472.75
2022-10-01T16:53:16.587Z,75480.47
2022-10-01T16:55:44.377Z,75478.53
2022-10-01T16:58:12.848Z,75480.47
2022-10-01T17:00:39.757Z,75476.59
2022-10-01T17:03:12.199Z,75474.69
2022-10-01T17:05:39.299Z,75476.59
2022-10-01T17:08:11.359Z,75476.59
2022-10-01T17:10:41.144Z,75484.31
2022-10-01T17:13:09.933Z,75486.25
2022-10-01T17:15:36.608Z,75488.16
2022-10-01T17:18:03.348Z,75495.88
2022-10-01T17:20:30.375Z,75499.72
2022-10-01T17:22:58.340Z,75492.03
2022-10-01T17:25:32.159Z,75493.94
2022-10-01T17:27:59.820Z,75490.09
2022-10-01T17:30:29.772Z,75484.31
2022-10-01T17:32:59.970Z,75492.03
2022-10-01T17:35:28.814Z,75503.59
2022-10-01T17:37:55.779Z,75507.44
2022-10-01T17:40:22.434Z,75519.00
2022-10-01T17:42:49.161Z,75515.13
2022-10-01T17:45:16.142Z,75507.44
2022-10-01T17:47:45.144Z,75511.28
2022-10-01T17:50:12.982Z,75519.00
2022-10-01T17:52:39.828Z,75524.78
2022-10-01T17:55:07.555Z,75536.31
2022-10-01T17:57:34.397Z,75534.41
2022-10-01T18:00:01.303Z,75544.03
2022-10-01T18:02:41.586Z,75559.44
2022-10-01T18:05:12.296Z,75561.38
2022-10-01T18:07:39.557Z,75576.78
2022-10-01T18:10:08.940Z,75596.03
2022-10-01T18:12:35.622Z,75596.03
2022-10-01T18:15:02.411Z,75603.75
2022-10-01T18:17:32.090Z,75623.03
2022-10-01T18:19:59.048Z,75626.88
2022-10-01T18:22:26.621Z,75626.88
2022-10-01T18:24:53.280Z,75632.66
2022-10-01T18:27:20.052Z,75623.03
2022-10-01T18:29:46.734Z,75619.16
2022-10-01T18:32:25.362Z,75619.16
2022-10-01T18:34:59.170Z,75638.44
2022-10-01T18:37:54.625Z,75653.84
2022-10-01T18:40:21.424Z,75665.41
2022-10-01T18:42:57.882Z,75671.19
2022-10-01T18:45:52.989Z,75680.81
2022-10-01T18:48:49.064Z,75688.53
2022-10-01T18:52:00.731Z,75692.38
2022-10-01T18:55:12.597Z,75711.63
2022-10-01T18:57:50.983Z,75717.41
2022-10-01T19:00:23.250Z,75721.28
2022-10-01T19:02:50.598Z,75717.41
2022-10-01T19:05:54.504Z,75715.50
2022-10-01T19:08:36.155Z,75727.06
2022-10-01T19:11:38.093Z,75730.91
2022-10-01T19:14:35.512Z,75734.75
2022-10-01T19:17:17.637Z,75740.53
2022-10-01T19:20:17.871Z,75748.25
2022-10-01T19:23:03.379Z,75746.31
2022-10-01T19:25:47.831Z,75742.47
2022-10-01T19:28:23.424Z,75746.31
2022-10-01T19:31:08.604Z,75742.47
2022-10-01T19:33:41.573Z,75757.88
2022-10-01T19:36:17.033Z,75754.03
2022-10-01T19:38:46.829Z,75765.59
2022-10-01T19:41:43.114Z,75765.59
2022-10-01T19:44:15.640Z,75773.28
2022-10-01T19:46:45.865Z,75775.22
2022-10-01T19:49:28.395Z,75750.16
2022-10-01T19:51:59.794Z,75732.84
2022-10-01T19:54:38.858Z,75730.91
2022-10-01T19:57:26.592Z,75721.28
2022-10-01T19:59:59.598Z,75719.34
2022-10-01T20:02:54.680Z,75711.63
2022-10-01T20:05:48.655Z,75719.34
2022-10-01T20:08:29.043Z,75719.34
2022-10-01T20:11:03.836Z,75719.34
2022-10-01T20:14:12.462Z,75728.97
2022-10-01T20:16:51.691Z,75727.06
2022-10-01T20:19:21.037Z,75734.75
2022-10-01T20:21:50.641Z,75723.19
2022-10-01T20:24:52.390Z,75721.28
2022-10-01T20:27:48.421Z,75717.41
2022-10-01T20:30:20.244Z,75715.50
2022-10-01T20:33:08.452Z,75719.34
2022-10-01T20:35:48.437Z,75728.97
2022-10-01T20:38:20.599Z,75727.06
2022-10-01T20:40:53.236Z,75725.13
2022-10-01T20:43:31.240Z,75715.50
2022-10-01T20:46:03.046Z,75719.34
2022-10-01T20:48:35.277Z,75728.97
2022-10-01T20:51:09.380Z,75742.47
2022-10-01T20:53:54.165Z,75754.03
2022-10-01T20:56:26.519Z,75769.44
2022-10-01T20:58:57.385Z,75781.00
2022-10-01T21:01:26.120Z,75796.41
2022-10-01T21:04:01.593Z,75804.13
2022-10-01T21:06:42.785Z,75817.59
2022-10-01T21:09:26.622Z,75825.31
2022-10-01T21:12:06.382Z,75831.09
2022-10-01T21:14:42.171Z,75842.66
2022-10-01T21:17:23.731Z,75840.72
2022-10-01T21:20:23.612Z,75844.56
2022-10-01T21:23:07.705Z,75842.66
2022-10-01T21:25:34.359Z,75842.66
2022-10-01T21:28:16.251Z,75834.94
2022-10-01T21:30:53.017Z,75833.00
2022-10-01T21:33:31.731Z,75827.22
2022-10-01T21:36:19.392Z,75827.22
2022-10-01T21:38:55.910Z,75831.09
2022-10-01T21:41:38.161Z,75840.72
2022-10-01T21:44:08.879Z,75836.88
2022-10-01T21:47:00.984Z,75819.53
2022-10-01T21:49:46.210Z,75815.69
2022-10-01T21:52:22.196Z,75827.22
2022-10-01T21:55:07.091Z,75823.38
2022-10-01T21:57:51.979Z,75823.38
2022-10-01T22:00:23.636Z,75829.16
2022-10-01T22:03:25.115Z,75838.78
2022-10-01T22:06:12.186Z,75838.78
2022-10-01T22:09:02.689Z,75831.09
2022-10-01T22:11:33.353Z,75838.78
2022-10-01T22:14:12.958Z,75823.38
2022-10-01T22:16:45.834Z,75819.53
2022-10-01T22:19:19.435Z,75819.53
2022-10-01T22:21:50.259Z,75815.69
2022-10-01T22:24:20.708Z,75807.97
2022-10-01T22:26:53.897Z,75798.34
2022-10-01T22:29:28.628Z,75796.41
2022-10-01T22:32:03.060Z,75781.00
2022-10-01T22:34:37.909Z,75784.84
2022-10-01T22:37:18.794Z,75790.63
2022-10-01T22:39:55.803Z,75792.56
2022-10-01T22:42:32.593Z,75763.66
2022-10-01T22:45:06.908Z,75779.06
2022-10-01T22:47:40.298Z,75781.00
2022-10-01T22:50:25.296Z,75761.72
2022-10-01T22:53:12.106Z,75767.50
2022-10-01T22:55:57.721Z,75782.91
2022-10-01T22:58:59.066Z,75790.63
2022-10-01T23:01:46.896Z,75781.00
2022-10-01T23:04:34.173Z,75784.84
2022-10-01T23:07:19.909Z,75802.19
2022-10-01T23:09:50.792Z,75815.69
2022-10-01T23:12:23.117Z,75829.16
2022-10-01T23:14:55.371Z,75834.94
2022-10-01T23:17:54.192Z,75840.72
2022-10-01T23:20:53.379Z,75846.50
2022-10-01T23:23:32.197Z,75869.63
2022-10-01T23:26:37.513Z,75881.19
2022-10-01T23:29:10.586Z,75900.44
2022-10-01T23:31:42.646Z,75912.00
2022-10-01T23:34:27.878Z,75927.41
2022-10-01T23:37:15.122Z,75946.69
2022-10-01T23:40:07.537Z,75954.38
2022-10-01T23:42:39.001Z,75967.88
2022-10-01T23:45:28.490Z,75971.72
2022-10-01T23:48:03.527Z,75977.50
2022-10-01T23:50:44.026Z,75987.16
2022-10-01T23:53:17.968Z,75991.00
2022-10-01T23:56:23.405Z,75992.94
2022-10-01T23:59:03.320Z,75989.06
